createdAt,value
2022-07-31T00:00:19.149Z,74.50
2022-07-31T00:02:46.803Z,74.50
2022-07-31T00:05:14.195Z,74.40
2022-07-31T00:07:41.314Z,74.30
2022-07-31T00:10:08.919Z,74.30
2022-07-31T00:12:36.114Z,74.30
2022-07-31T00:15:05.246Z,74.30
2022-07-31T00:17:33.081Z,74.50
2022-07-31T00:20:00.221Z,74.50
2022-07-31T00:22:27.475Z,74.50
2022-07-31T00:24:54.640Z,74.50
2022-07-31T00:27:21.696Z,74.50
2022-07-31T00:29:48.942Z,74.70
2022-07-31T00:32:16.071Z,74.60
2022-07-31T00:34:43.983Z,74.70
2022-07-31T00:37:11.098Z,74.80
2022-07-31T00:39:38.347Z,74.80
2022-07-31T00:42:05.847Z,74.90
2022-07-31T00:44:32.949Z,74.70
2022-07-31T00:47:00.710Z,74.80
2022-07-31T00:49:37.401Z,74.90
2022-07-31T00:52:05.354Z,74.90
2022-07-31T00:54:32.872Z,74.90
2022-07-31T00:57:00.572Z,74.90
2022-07-31T00:59:28.483Z,74.90
2022-07-31T01:01:56.587Z,75.00
2022-07-31T01:04:23.866Z,75.20
2022-07-31T01:06:51.217Z,75.20
2022-07-31T01:09:18.367Z,75.30
2022-07-31T01:11:50.647Z,75.30
2022-07-31T01:14:19.893Z,75.40
2022-07-31T01:16:48.315Z,75.40
2022-07-31T01:19:15.984Z,75.40
2022-07-31T01:21:49.277Z,76.00
2022-07-31T01:24:28.778Z,75.50
2022-07-31T01:27:09.106Z,75.50
2022-07-31T01:29:46.189Z,75.50
2022-07-31T01:32:16.241Z,75.60
2022-07-31T01:34:48.264Z,75.70
2022-07-31T01:37:20.807Z,75.60
2022-07-31T01:39:54.139Z,75.70
2022-07-31T01:42:22.279Z,75.60
2022-07-31T01:44:53.181Z,75.70
2022-07-31T01:47:21.514Z,75.70
2022-07-31T01:49:50.054Z,75.80
2022-07-31T01:52:20.271Z,75.70
2022-07-31T01:54:47.765Z,75.70
2022-07-31T01:57:18.672Z,75.70
2022-07-31T01:59:50.551Z,75.60
2022-07-31T02:02:40.742Z,75.70
2022-07-31T02:05:10.525Z,75.60
2022-07-31T02:07:40.215Z,75.60
2022-07-31T02:10:09.978Z,75.60
2022-07-31T02:12:37.560Z,75.60
2022-07-31T02:15:06.803Z,75.50
2022-07-31T02:17:34.914Z,75.60
2022-07-31T02:20:20.536Z,75.60
2022-07-31T02:22:49.794Z,75.60
2022-07-31T02:25:17.038Z,75.60
2022-07-31T02:27:54.284Z,75.60
2022-07-31T02:30:27.465Z,75.60
2022-07-31T02:33:10.192Z,75.70
2022-07-31T02:35:38.511Z,75.80
2022-07-31T02:38:17.151Z,75.80
2022-07-31T02:40:53.226Z,75.70
2022-07-31T02:43:20.772Z,75.80
2022-07-31T02:45:48.056Z,75.90
2022-07-31T02:48:15.653Z,75.90
2022-07-31T02:50:47.380Z,75.90
2022-07-31T02:53:14.594Z,75.90
2022-07-31T02:55:44.140Z,75.90
2022-07-31T02:58:11.340Z,75.90
2022-07-31T03:00:38.968Z,76.00
2022-07-31T03:03:06.365Z,76.00
2022-07-31T03:05:33.648Z,76.00
2022-07-31T03:08:00.765Z,76.10
2022-07-31T03:10:28.006Z,76.00
2022-07-31T03:13:05.841Z,76.10
2022-07-31T03:15:33.375Z,76.00
2022-07-31T03:18:00.845Z,76.00
2022-07-31T03:20:40.789Z,76.00
2022-07-31T03:23:11.218Z,76.10
2022-07-31T03:25:48.697Z,76.10
2022-07-31T03:28:16.289Z,76.10
2022-07-31T03:30:43.645Z,76.10
2022-07-31T03:33:10.778Z,76.20
2022-07-31T03:35:39.213Z,76.20
2022-07-31T03:38:41.679Z,76.20
2022-07-31T03:41:01.268Z,76.30
2022-07-31T03:43:30.314Z,76.30
2022-07-31T03:46:15.473Z,76.40
2022-07-31T03:48:42.617Z,76.30
2022-07-31T03:51:10.181Z,76.30
2022-07-31T03:53:37.881Z,76.40
2022-07-31T03:56:06.629Z,76.40
2022-07-31T03:58:34.627Z,76.40
2022-07-31T04:01:09.731Z,76.40
2022-07-31T04:03:39.755Z,76.50
2022-07-31T04:06:19.224Z,76.50
2022-07-31T04:08:46.416Z,76.50
2022-07-31T04:11:13.863Z,76.60
2022-07-31T04:13:41.078Z,76.60
2022-07-31T04:16:08.952Z,76.60
2022-07-31T04:18:36.024Z,76.50
2022-07-31T04:21:03.211Z,76.60
2022-07-31T04:23:32.535Z,76.60
2022-07-31T04:26:20.057Z,76.70
2022-07-31T04:29:02.216Z,76.70
2022-07-31T04:31:30.002Z,76.70
2022-07-31T04:33:57.327Z,76.70
2022-07-31T04:36:29.567Z,76.80
2022-07-31T04:39:01.388Z,76.70
2022-07-31T04:41:29.542Z,76.70
2022-07-31T04:43:59.647Z,76.80
2022-07-31T04:46:30.746Z,76.90
2022-07-31T04:48:58.036Z,76.90
2022-07-31T04:51:27.161Z,76.90
2022-07-31T04:53:54.449Z,76.90
2022-07-31T04:56:41.826Z,76.90
2022-07-31T04:59:10.536Z,76.90
2022-07-31T05:01:40.962Z,77.00
2022-07-31T05:04:09.138Z,77.00
2022-07-31T05:06:41.030Z,77.00
2022-07-31T05:09:12.551Z,77.00
2022-07-31T05:11:45.742Z,77.10
2022-07-31T05:14:13.577Z,77.10
2022-07-31T05:16:40.773Z,77.10
2022-07-31T05:19:13.796Z,77.10
2022-07-31T05:22:02.624Z,77.20
2022-07-31T05:24:33.521Z,77.20
2022-07-31T05:27:21.482Z,77.30
2022-07-31T05:29:48.550Z,77.90
2022-07-31T05:32:17.045Z,78.00
2022-07-31T05:34:46.247Z,78.30
2022-07-31T05:37:13.369Z,78.50
2022-07-31T05:39:41.192Z,78.60
2022-07-31T05:42:26.620Z,78.60
2022-07-31T05:45:28.848Z,78.70
2022-07-31T05:47:55.997Z,78.60
2022-07-31T05:50:23.265Z,78.50
2022-07-31T05:52:50.477Z,78.80
2022-07-31T05:55:40.189Z,78.90
2022-07-31T05:58:30.418Z,79.20
2022-07-31T06:00:57.662Z,78.70
2022-07-31T06:03:27.746Z,77.50
2022-07-31T06:06:02.993Z,77.60
2022-07-31T06:08:30.519Z,78.10
2022-07-31T06:10:57.759Z,78.40
2022-07-31T06:13:26.074Z,78.60
2022-07-31T06:15:53.855Z,78.50
2022-07-31T06:18:21.719Z,78.60
2022-07-31T06:20:49.535Z,78.80
2022-07-31T06:23:22.757Z,78.80
2022-07-31T06:26:01.763Z,78.80
2022-07-31T06:28:46.488Z,78.80
2022-07-31T06:31:22.058Z,78.50
2022-07-31T06:33:52.626Z,79.30
2022-07-31T06:36:23.127Z,79.40
2022-07-31T06:39:01.403Z,79.70
2022-07-31T06:41:47.493Z,79.80
2022-07-31T06:44:30.827Z,80.10
2022-07-31T06:47:26.997Z,80.60
2022-07-31T06:49:56.670Z,80.50
2022-07-31T06:52:27.647Z,80.90
2022-07-31T06:54:55.488Z,81.50
2022-07-31T06:57:22.635Z,81.70
2022-07-31T06:59:50.238Z,82.50
2022-07-31T07:02:17.461Z,82.40
2022-07-31T07:05:05.010Z,82.40
2022-07-31T07:07:32.265Z,81.60
2022-07-31T07:10:01.468Z,81.10
2022-07-31T07:12:51.738Z,81.10
2022-07-31T07:15:21.403Z,81.30
2022-07-31T07:17:48.590Z,81.20
2022-07-31T07:20:21.138Z,81.50
2022-07-31T07:22:48.314Z,80.90
2022-07-31T07:25:28.783Z,81.00
2022-07-31T07:27:58.008Z,81.00
2022-07-31T07:30:28.436Z,81.40
2022-07-31T07:32:59.700Z,81.70
2022-07-31T07:35:30.766Z,81.20
2022-07-31T07:38:03.598Z,81.40
2022-07-31T07:40:31.193Z,81.90
2022-07-31T07:43:02.843Z,82.10
2022-07-31T07:45:31.095Z,83.70
2022-07-31T07:48:06.235Z,83.40
2022-07-31T07:50:44.627Z,83.20
2022-07-31T07:53:30.214Z,82.60
2022-07-31T07:56:15.797Z,82.90
2022-07-31T07:59:03.205Z,82.20
2022-07-31T08:01:48.844Z,81.20
2022-07-31T08:04:21.138Z,81.40
2022-07-31T08:06:48.525Z,81.40
2022-07-31T08:09:16.741Z,81.60
2022-07-31T08:12:03.155Z,82.20
2022-07-31T08:14:59.923Z,81.50
2022-07-31T08:17:41.823Z,82.00
2022-07-31T08:20:10.779Z,82.00
2022-07-31T08:22:38.016Z,81.70
2022-07-31T08:25:05.831Z,82.30
2022-07-31T08:27:39.460Z,82.30
2022-07-31T08:30:08.259Z,81.30
2022-07-31T08:32:36.398Z,80.70
2022-07-31T08:35:06.567Z,80.80
2022-07-31T08:38:01.478Z,80.90
2022-07-31T08:40:22.618Z,80.70
2022-07-31T08:42:49.895Z,80.70
2022-07-31T08:45:17.109Z,80.70
2022-07-31T08:47:51.964Z,80.70
2022-07-31T08:50:25.468Z,80.90
2022-07-31T08:52:54.644Z,80.20
2022-07-31T08:55:57.027Z,79.30
2022-07-31T08:58:18.752Z,80.40
2022-07-31T09:00:45.915Z,80.30
2022-07-31T09:03:13.065Z,79.80
2022-07-31T09:05:49.900Z,80.10
2022-07-31T09:08:17.667Z,79.90
2022-07-31T09:11:00.929Z,79.60
2022-07-31T09:13:30.433Z,79.90
2022-07-31T09:15:59.599Z,79.90
2022-07-31T09:18:28.483Z,79.90
2022-07-31T09:21:04.143Z,79.80
2022-07-31T09:23:32.219Z,79.80
2022-07-31T09:26:01.919Z,79.70
2022-07-31T09:28:33.146Z,79.80
2022-07-31T09:31:00.674Z,79.70
2022-07-31T09:33:47.775Z,79.50
2022-07-31T09:36:33.194Z,79.50
2022-07-31T09:39:28.944Z,79.80
2022-07-31T09:42:19.360Z,79.50
2022-07-31T09:45:04.283Z,79.40
2022-07-31T09:47:33.640Z,79.20
2022-07-31T09:50:04.940Z,79.10
2022-07-31T09:52:32.614Z,79.00
2022-07-31T09:55:15.917Z,78.90
2022-07-31T09:57:53.111Z,78.80
2022-07-31T10:00:22.136Z,78.70
2022-07-31T10:02:49.701Z,78.60
2022-07-31T10:05:17.456Z,78.60
2022-07-31T10:07:46.316Z,78.50
2022-07-31T10:10:18.693Z,77.60
2022-07-31T10:13:07.887Z,78.10
2022-07-31T10:15:36.358Z,78.20
2022-07-31T10:18:44.664Z,78.40
2022-07-31T10:21:24.795Z,78.50
2022-07-31T10:24:01.307Z,79.00
2022-07-31T10:26:50.620Z,78.40
2022-07-31T10:29:17.278Z,78.20
2022-07-31T10:31:46.384Z,77.90
2022-07-31T10:34:14.993Z,77.90
2022-07-31T10:37:23.040Z,78.00
2022-07-31T10:40:10.621Z,77.80
2022-07-31T10:42:47.029Z,77.10
2022-07-31T10:45:14.965Z,77.60
2022-07-31T10:48:00.931Z,77.60
2022-07-31T10:50:47.052Z,77.20
2022-07-31T10:53:21.689Z,77.90
2022-07-31T10:56:13.819Z,78.60
2022-07-31T10:59:10.941Z,78.30
2022-07-31T11:01:54.787Z,78.40
2022-07-31T11:04:40.827Z,77.60
2022-07-31T11:07:16.061Z,78.00
2022-07-31T11:10:21.941Z,77.80
2022-07-31T11:13:36.826Z,78.20
2022-07-31T11:16:27.971Z,78.40
2022-07-31T11:19:22.543Z,78.10
2022-07-31T11:21:49.755Z,76.40
2022-07-31T11:24:16.860Z,76.30
2022-07-31T11:26:50.595Z,76.10
2022-07-31T11:29:58.525Z,77.40
2022-07-31T11:32:22.892Z,77.40
2022-07-31T11:34:54.677Z,77.20
2022-07-31T11:37:25.726Z,77.30
2022-07-31T11:39:53.822Z,77.30
2022-07-31T11:42:26.347Z,76.50
2022-07-31T11:45:11.134Z,76.80
2022-07-31T11:48:11.769Z,77.30
2022-07-31T11:50:30.670Z,77.30
2022-07-31T11:53:06.753Z,77.40
2022-07-31T11:55:44.182Z,77.20
2022-07-31T11:58:11.391Z,77.40
2022-07-31T12:00:38.536Z,77.30
2022-07-31T12:03:05.720Z,77.00
2022-07-31T12:05:43.002Z,76.50
2022-07-31T12:08:10.948Z,76.00
2022-07-31T12:10:38.592Z,76.00
2022-07-31T12:13:14.037Z,76.20
2022-07-31T12:16:00.102Z,76.40
2022-07-31T12:18:27.997Z,76.10
2022-07-31T12:20:59.062Z,75.30
2022-07-31T12:23:40.695Z,75.40
2022-07-31T12:26:10.933Z,74.60
2022-07-31T12:28:38.181Z,74.80
2022-07-31T12:31:05.442Z,74.90
2022-07-31T12:33:42.627Z,74.90
2022-07-31T12:36:14.205Z,74.50
2022-07-31T12:38:45.196Z,73.70
2022-07-31T12:41:15.514Z,73.70
2022-07-31T12:43:51.337Z,74.30
2022-07-31T12:46:33.693Z,73.80
2022-07-31T12:49:01.118Z,74.20
2022-07-31T12:51:44.164Z,74.40
2022-07-31T12:54:14.037Z,74.80
2022-07-31T12:56:41.603Z,74.70
2022-07-31T12:59:08.944Z,75.00
2022-07-31T13:01:36.794Z,73.90
2022-07-31T13:04:05.962Z,73.50
2022-07-31T13:06:37.394Z,73.40
2022-07-31T13:09:04.870Z,73.70
2022-07-31T13:11:46.462Z,73.10
2022-07-31T13:14:19.342Z,73.10
2022-07-31T13:16:46.830Z,73.50
2022-07-31T13:19:14.585Z,72.90
2022-07-31T13:21:49.042Z,72.70
2022-07-31T13:24:17.958Z,73.10
2022-07-31T13:26:45.362Z,73.60
2022-07-31T13:29:12.838Z,74.20
2022-07-31T13:31:40.238Z,74.10
2022-07-31T13:34:07.458Z,74.10
2022-07-31T13:36:38.954Z,73.50
2022-07-31T13:39:10.645Z,73.50
2022-07-31T13:41:38.858Z,73.50
2022-07-31T13:44:06.580Z,73.80
2022-07-31T13:46:33.829Z,73.20
2022-07-31T13:49:02.663Z,73.10
2022-07-31T13:51:30.093Z,72.60
2022-07-31T13:53:57.344Z,72.30
2022-07-31T13:56:38.628Z,72.30
2022-07-31T13:59:11.398Z,72.80
2022-07-31T14:02:13.438Z,72.20
2022-07-31T14:04:27.774Z,72.50
2022-07-31T14:06:58.644Z,71.50
2022-07-31T14:09:28.288Z,71.80
2022-07-31T14:11:56.163Z,72.30
2022-07-31T14:14:23.588Z,72.50
2022-07-31T14:16:51.173Z,72.40
2022-07-31T14:19:18.343Z,72.20
2022-07-31T14:21:56.327Z,72.50
2022-07-31T14:24:25.345Z,72.00
2022-07-31T14:26:52.509Z,72.50
2022-07-31T14:29:19.616Z,72.20
2022-07-31T14:31:46.732Z,72.30
2022-07-31T14:34:13.847Z,72.50
2022-07-31T14:36:41.065Z,72.40
2022-07-31T14:39:08.209Z,72.70
2022-07-31T14:41:35.284Z,72.90
2022-07-31T14:44:02.352Z,72.70
2022-07-31T14:46:29.460Z,72.70
2022-07-31T14:48:56.628Z,72.70
2022-07-31T14:51:23.865Z,72.40
2022-07-31T14:53:52.360Z,72.50
2022-07-31T14:56:34.828Z,72.70
2022-07-31T14:59:06.531Z,73.00
2022-07-31T15:01:33.709Z,72.90
2022-07-31T15:04:00.905Z,73.10
2022-07-31T15:06:39.592Z,73.30
2022-07-31T15:09:16.273Z,73.30
2022-07-31T15:12:00.960Z,73.30
2022-07-31T15:14:31.755Z,73.40
2022-07-31T15:16:58.829Z,73.40
2022-07-31T15:19:25.979Z,73.10
2022-07-31T15:22:15.944Z,73.10
2022-07-31T15:24:43.843Z,72.90
2022-07-31T15:27:15.836Z,72.70
2022-07-31T15:30:03.336Z,73.00
2022-07-31T15:32:30.258Z,73.10
2022-07-31T15:34:57.448Z,73.20
2022-07-31T15:37:24.608Z,73.60
2022-07-31T15:40:02.748Z,73.70
2022-07-31T15:42:37.570Z,73.90
2022-07-31T15:45:04.947Z,73.80
2022-07-31T15:47:32.114Z,73.60
2022-07-31T15:49:59.276Z,73.70
2022-07-31T15:52:26.655Z,73.70
2022-07-31T15:54:53.754Z,73.80
2022-07-31T15:57:21.278Z,73.90
2022-07-31T15:59:51.095Z,74.20
2022-07-31T16:02:18.285Z,74.10
2022-07-31T16:04:52.812Z,74.10
2022-07-31T16:08:28.539Z,74.10
2022-07-31T16:10:15.866Z,74.10
2022-07-31T16:12:47.703Z,74.00
2022-07-31T16:15:16.139Z,74.20
2022-07-31T16:17:43.808Z,74.00
2022-07-31T16:20:11.047Z,73.90
2022-07-31T16:22:39.011Z,74.00
2022-07-31T16:25:06.817Z,73.90
2022-07-31T16:27:33.976Z,74.10
2022-07-31T16:30:02.676Z,74.00
2022-07-31T16:32:30.372Z,73.80
2022-07-31T16:35:00.919Z,73.70
2022-07-31T16:37:52.319Z,73.70
2022-07-31T16:40:27.013Z,74.00
2022-07-31T16:43:47.606Z,74.00
2022-07-31T16:45:53.115Z,74.20
2022-07-31T16:48:20.228Z,74.20
2022-07-31T16:50:53.771Z,74.20
2022-07-31T16:54:11.399Z,74.20
2022-07-31T16:56:13.258Z,74.20
2022-07-31T16:58:40.575Z,74.10
2022-07-31T17:01:54.084Z,74.30
2022-07-31T17:04:00.262Z,74.20
2022-07-31T17:06:34.410Z,74.20
2022-07-31T17:09:16.188Z,74.30
2022-07-31T17:11:46.489Z,74.00
2022-07-31T17:14:13.608Z,74.10
2022-07-31T17:16:46.393Z,74.00
2022-07-31T17:19:15.146Z,74.10
2022-07-31T17:21:44.302Z,75.20
2022-07-31T17:24:13.445Z,75.40
2022-07-31T17:26:43.922Z,76.00
2022-07-31T17:29:11.653Z,76.20
2022-07-31T17:31:38.929Z,76.50
2022-07-31T17:34:09.343Z,76.50
2022-07-31T17:36:36.915Z,77.40
2022-07-31T17:39:04.593Z,77.20
2022-07-31T17:41:31.778Z,78.10
2022-07-31T17:43:58.862Z,79.00
2022-07-31T17:46:34.581Z,79.50
2022-07-31T17:49:04.818Z,78.90
2022-07-31T17:51:31.953Z,79.00
2022-07-31T17:53:59.873Z,79.70
2022-07-31T17:56:27.608Z,78.10
2022-07-31T17:58:55.704Z,78.70
2022-07-31T18:01:27.150Z,79.10
2022-07-31T18:03:55.957Z,78.00
2022-07-31T18:06:23.127Z,78.20
2022-07-31T18:08:50.212Z,79.80
2022-07-31T18:11:18.502Z,82.00
2022-07-31T18:13:48.247Z,83.60
2022-07-31T18:16:19.353Z,83.30
2022-07-31T18:18:46.474Z,84.50
2022-07-31T18:21:14.229Z,84.00
2022-07-31T18:23:47.153Z,85.40
2022-07-31T18:26:14.849Z,85.60
2022-07-31T18:28:41.924Z,87.60
2022-07-31T18:31:31.973Z,88.20
2022-07-31T18:33:56.219Z,88.00
2022-07-31T18:36:23.369Z,88.00
2022-07-31T18:38:52.061Z,90.90
2022-07-31T18:41:20.520Z,91.20
2022-07-31T18:43:47.590Z,91.00
2022-07-31T18:46:15.007Z,90.80
2022-07-31T18:48:42.150Z,90.50
2022-07-31T18:51:09.349Z,90.10
2022-07-31T18:53:36.509Z,90.10
2022-07-31T18:56:03.766Z,89.00
2022-07-31T18:58:30.947Z,88.60
2022-07-31T19:00:58.059Z,89.80
2022-07-31T19:03:26.230Z,88.20
2022-07-31T19:05:54.460Z,85.30
2022-07-31T19:08:21.645Z,85.90
2022-07-31T19:10:53.499Z,85.30
2022-07-31T19:13:21.215Z,84.10
2022-07-31T19:15:49.174Z,84.60
2022-07-31T19:18:16.463Z,84.20
2022-07-31T19:20:58.796Z,82.90
2022-07-31T19:23:33.594Z,85.20
2022-07-31T19:26:03.389Z,85.30
2022-07-31T19:28:32.679Z,85.20
2022-07-31T19:30:59.757Z,84.80
2022-07-31T19:33:26.943Z,84.50
2022-07-31T19:36:00.661Z,83.80
2022-07-31T19:38:29.467Z,83.60
2022-07-31T19:40:56.630Z,83.50
2022-07-31T19:43:23.807Z,83.60
2022-07-31T19:46:09.689Z,83.60
2022-07-31T19:48:41.726Z,82.90
2022-07-31T19:51:09.529Z,82.90
2022-07-31T19:53:37.306Z,83.00
2022-07-31T19:56:07.103Z,82.80
2022-07-31T19:58:35.139Z,82.90
2022-07-31T20:01:03.174Z,82.70
2022-07-31T20:03:30.424Z,82.50
2022-07-31T20:05:57.697Z,82.60
2022-07-31T20:08:24.787Z,82.70
2022-07-31T20:10:51.849Z,82.20
2022-07-31T20:13:18.986Z,81.60
2022-07-31T20:15:51.190Z,81.60
2022-07-31T20:18:27.299Z,81.30
2022-07-31T20:20:57.032Z,80.90
2022-07-31T20:23:25.066Z,80.70
2022-07-31T20:25:52.230Z,80.60
2022-07-31T20:28:19.431Z,80.60
2022-07-31T20:30:46.461Z,80.70
2022-07-31T20:33:13.746Z,80.20
2022-07-31T20:35:48.067Z,80.20
2022-07-31T20:38:17.628Z,79.90
2022-07-31T20:40:51.170Z,80.30
2022-07-31T20:43:22.790Z,80.10
2022-07-31T20:45:49.921Z,79.80
2022-07-31T20:48:23.921Z,79.90
2022-07-31T20:50:51.930Z,80.20
2022-07-31T20:53:20.787Z,80.10
2022-07-31T20:55:49.922Z,79.70
2022-07-31T20:58:21.098Z,80.20
2022-07-31T21:00:48.994Z,80.20
2022-07-31T21:03:16.628Z,80.30
2022-07-31T21:05:44.345Z,79.90
2022-07-31T21:08:11.946Z,79.80
2022-07-31T21:10:39.191Z,79.90
2022-07-31T21:13:06.311Z,80.10
2022-07-31T21:15:41.788Z,80.20
2022-07-31T21:18:12.372Z,80.10
2022-07-31T21:20:51.094Z,80.20
2022-07-31T21:23:21.145Z,80.60
2022-07-31T21:25:48.283Z,80.30
2022-07-31T21:28:15.493Z,80.30
2022-07-31T21:30:42.633Z,80.20
2022-07-31T21:33:09.815Z,80.70
2022-07-31T21:35:39.062Z,80.30
2022-07-31T21:38:06.933Z,80.30
2022-07-31T21:40:38.721Z,80.30
2022-07-31T21:43:05.947Z,80.70
2022-07-31T21:45:49.740Z,80.40
2022-07-31T21:48:22.149Z,80.50
2022-07-31T21:50:49.301Z,80.50
2022-07-31T21:53:16.476Z,80.70
2022-07-31T21:55:43.630Z,80.60
2022-07-31T21:58:10.714Z,80.80
2022-07-31T22:00:38.119Z,80.50
2022-07-31T22:03:05.519Z,80.70
2022-07-31T22:05:51.821Z,80.60
2022-07-31T22:08:19.389Z,80.90
2022-07-31T22:10:46.797Z,80.90
2022-07-31T22:13:13.972Z,80.90
2022-07-31T22:15:55.425Z,81.10
2022-07-31T22:18:27.507Z,81.10
2022-07-31T22:20:54.732Z,81.10
2022-07-31T22:23:23.290Z,81.00
2022-07-31T22:25:50.630Z,81.00
2022-07-31T22:28:19.434Z,80.70
2022-07-31T22:30:46.811Z,80.90
2022-07-31T22:33:14.432Z,80.80
2022-07-31T22:35:41.634Z,81.00
2022-07-31T22:38:09.086Z,81.10
2022-07-31T22:40:36.202Z,81.20
2022-07-31T22:43:03.626Z,81.00
2022-07-31T22:45:30.808Z,80.80
2022-07-31T22:47:58.003Z,80.70
2022-07-31T22:50:25.404Z,80.90
2022-07-31T22:52:53.281Z,81.00
2022-07-31T22:55:20.332Z,81.10
2022-07-31T22:57:47.459Z,81.40
2022-07-31T23:00:15.363Z,81.30
2022-07-31T23:02:43.567Z,81.10
2022-07-31T23:05:10.713Z,81.50
2022-07-31T23:07:38.047Z,81.30
2022-07-31T23:10:05.997Z,81.30
2022-07-31T23:12:33.233Z,81.30
2022-07-31T23:15:00.400Z,81.30
2022-07-31T23:17:27.433Z,81.40
2022-07-31T23:19:54.881Z,81.40
2022-07-31T23:22:30.701Z,81.30
2022-07-31T23:25:02.066Z,81.30
2022-07-31T23:27:29.162Z,81.20
2022-07-31T23:29:56.320Z,81.30
2022-07-31T23:32:23.407Z,81.30
2022-07-31T23:34:50.550Z,81.60
2022-07-31T23:37:17.744Z,81.70
2022-07-31T23:39:44.817Z,81.80
2022-07-31T23:42:30.358Z,81.80
2022-07-31T23:44:57.459Z,81.90
2022-07-31T23:47:24.495Z,81.80
2022-07-31T23:50:11.464Z,81.90
2022-07-31T23:52:38.534Z,81.90
2022-07-31T23:55:05.807Z,81.90
2022-07-31T23:57:34.405Z,81.70
